Time;durP1;ratioP1;P1;durP2;ratioP2;P2;SDS_P1;SDS_P2;PMS_P1;PMS_P2;Temp;Humidity;BMP_temperature;BMP_pressure;BME280_temperature;BME280_humidity;BME280_pressure;Samples;Min_cycle;Max_cycle;Signal;HPM_P1;HPM_P2
2023/10/13 00:02:13;;;;;;;4.43;3.30;;;;;;;7.83;75.38;96875.56;5135818;27;20050;-63
2023/10/13 00:04:42;;;;;;;6.82;3.45;;;;;;;7.88;75.05;96871.97;5135614;27;20047;-62
2023/10/13 00:07:09;;;;;;;5.75;3.50;;;;;;;7.90;74.75;96878.88;5135470;27;20051;-62
2023/10/13 00:09:38;;;;;;;6.68;3.83;;;;;;;7.85;75.11;96870.31;5135484;27;20054;-63
2023/10/13 00:12:08;;;;;;;5.20;3.38;;;;;;;7.88;75.36;96864.16;5135401;27;20055;-63
2023/10/13 00:14:35;;;;;;;7.13;3.28;;;;;;;7.87;75.37;96867.66;5135465;27;20078;-63
2023/10/13 00:17:05;;;;;;;8.93;3.25;;;;;;;7.93;75.46;96870.16;5135482;27;20047;-62
2023/10/13 00:19:37;;;;;;;3.97;2.38;;;;;;;7.95;74.85;96877.03;5135445;27;20126;-61
2023/10/13 00:22:12;;;;;;;4.38;3.00;;;;;;;7.94;74.13;96871.84;5135286;27;20039;-63
2023/10/13 00:24:45;;;;;;;5.05;3.20;;;;;;;7.87;73.77;96871.13;5135373;27;20051;-63
2023/10/13 00:27:29;;;;;;;5.50;2.97;;;;;;;7.81;74.55;96871.28;5134986;27;20508;-63
2023/10/13 00:30:16;;;;;;;5.10;2.75;;;;;;;7.84;74.74;96861.66;5135112;27;20043;-63
2023/10/13 00:32:46;;;;;;;8.07;3.95;;;;;;;7.78;74.92;96864.38;5134394;27;20546;-62
2023/10/13 00:35:24;;;;;;;5.15;3.35;;;;;;;7.79;75.17;96866.09;5134989;27;20043;-62
2023/10/13 00:37:53;;;;;;;4.25;3.35;;;;;;;7.77;74.96;96856.59;5134881;27;20047;-63
2023/10/13 00:40:42;;;;;;;4.65;3.20;;;;;;;7.78;74.80;96863.53;5134994;27;20043;-63
2023/10/13 00:45:58;;;;;;;12.98;3.40;;;;;;;7.66;74.80;96859.44;5134918;27;20054;-61
2023/10/13 00:48:29;;;;;;;7.97;3.60;;;;;;;7.58;75.15;96851.78;5134892;27;20450;-62
2023/10/13 00:51:02;;;;;;;3.85;2.80;;;;;;;7.55;75.82;96850.09;5134697;27;20472;-63
2023/10/13 00:53:33;;;;;;;3.63;3.30;;;;;;;7.56;75.90;96850.97;5134611;27;20446;-63
2023/10/13 00:56:06;;;;;;;4.80;3.95;;;;;;;7.54;76.02;96852.72;5134670;27;20385;-61
2023/10/13 00:58:33;;;;;;;5.38;3.20;;;;;;;7.52;76.24;96854.50;5134522;27;20043;-63
2023/10/13 01:01:17;;;;;;;6.70;3.65;;;;;;;7.53;75.63;96851.03;5134686;27;20044;-62
2023/10/13 01:03:45;;;;;;;6.75;3.28;;;;;;;7.50;76.05;96849.34;5134487;27;20096;-62
2023/10/13 01:06:13;;;;;;;4.78;3.08;;;;;;;7.48;75.97;96847.66;5134558;27;20047;-63
2023/10/13 01:08:44;;;;;;;9.43;2.97;;;;;;;7.50;76.01;96844.16;5134483;27;20381;-61
2023/10/13 01:11:11;;;;;;;4.63;3.30;;;;;;;7.45;75.80;96840.78;5134294;27;20054;-62
2023/10/13 01:13:37;;;;;;;4.15;3.28;;;;;;;7.43;76.36;96842.53;5134340;27;20492;-62
2023/10/13 01:16:07;;;;;;;4.40;3.08;;;;;;;7.43;76.04;96838.19;5134577;27;20118;-62
2023/10/13 01:18:39;;;;;;;5.25;3.33;;;;;;;7.43;75.97;96832.13;5134248;27;20051;-62
2023/10/13 01:21:09;;;;;;;5.28;2.92;;;;;;;7.43;75.75;96835.59;5134244;27;20118;-62
2023/10/13 01:23:38;;;;;;;8.20;3.72;;;;;;;7.42;75.41;96826.09;5134366;27;20130;-61
2023/10/13 01:26:06;;;;;;;5.15;3.55;;;;;;;7.33;75.60;96829.72;5134162;27;20047;-61
2023/10/13 01:28:44;;;;;;;4.90;3.70;;;;;;;7.31;76.69;96828.03;5133914;27;20079;-63
2023/10/13 01:31:17;;;;;;;7.47;3.30;;;;;;;7.29;76.37;96827.22;5134180;27;20492;-63
2023/10/13 01:33:44;;;;;;;4.93;3.08;;;;;;;7.27;76.38;96836.78;5134062;27;20054;-62
2023/10/13 01:36:12;;;;;;;10.38;3.40;;;;;;;7.28;76.38;96833.28;5133988;28;20044;-63
2023/10/13 01:38:42;;;;;;;4.47;3.22;;;;;;;7.18;76.26;96827.44;5134198;28;20047;-61
2023/10/13 01:41:09;;;;;;;4.47;3.08;;;;;;;7.14;77.16;96841.38;5134202;27;20045;-63
2023/10/13 01:43:35;;;;;;;7.22;3.45;;;;;;;7.13;77.68;96831.88;5134628;27;20062;-62
2023/10/13 01:46:03;;;;;;;6.78;3.70;;;;;;;7.06;77.72;96820.72;5138290;27;20039;-62
2023/10/13 01:48:38;;;;;;;8.82;3.08;;;;;;;7.02;77.79;96819.06;5138437;27;20377;-61
2023/10/13 01:51:05;;;;;;;4.22;3.33;;;;;;;7.04;77.66;96828.56;5138170;27;20054;-62
2023/10/13 01:53:32;;;;;;;7.25;3.20;;;;;;;7.06;77.56;96825.91;5138072;27;20043;-62
2023/10/13 01:56:05;;;;;;;6.28;3.20;;;;;;;7.07;78.12;96825.88;5138146;27;20047;-62
2023/10/13 01:58:34;;;;;;;4.40;3.13;;;;;;;7.07;78.08;96815.50;5138102;27;20039;-63
2023/10/13 02:01:00;;;;;;;6.70;3.45;;;;;;;7.08;77.74;96818.97;5138053;27;20454;-61
2023/10/13 02:03:29;;;;;;;8.23;3.60;;;;;;;7.00;77.74;96819.09;5138126;27;20047;-62
2023/10/13 02:05:58;;;;;;;10.10;3.60;;;;;;;7.02;78.82;96826.88;5137874;27;20126;-63
2023/10/13 02:08:25;;;;;;;6.25;3.15;;;;;;;7.02;78.39;96819.06;5137726;27;20488;-61
2023/10/13 02:10:52;;;;;;;3.55;3.25;;;;;;;7.04;78.18;96823.34;5137889;27;20100;-62
2023/10/13 02:13:22;;;;;;;8.02;3.88;;;;;;;7.02;78.20;96824.28;5137634;27;20051;-62
2023/10/13 02:15:51;;;;;;;7.23;3.70;;;;;;;7.02;77.77;96827.75;5137710;27;20047;-61
2023/10/13 02:18:25;;;;;;;7.50;3.70;;;;;;;6.89;78.33;96823.66;5137576;27;20545;-62
2023/10/13 02:20:54;;;;;;;5.40;3.90;;;;;;;6.92;78.70;96820.97;5137592;27;20043;-62
2023/10/13 02:23:22;;;;;;;5.28;3.47;;;;;;;6.89;78.83;96823.66;5137538;27;20066;-62
2023/10/13 02:25:52;;;;;;;6.43;3.30;;;;;;;6.90;78.85;96821.03;5137555;27;20411;-62
2023/10/13 02:28:28;;;;;;;7.65;3.70;;;;;;;6.88;79.28;96817.59;5137597;27;20474;-61
2023/10/13 02:30:54;;;;;;;8.43;3.75;;;;;;;6.89;79.42;96818.47;5137398;27;20114;-62
2023/10/13 02:33:22;;;;;;;4.55;3.40;;;;;;;6.85;79.73;96807.25;5137198;27;20047;-61
2023/10/13 02:35:53;;;;;;;7.40;3.67;;;;;;;6.82;79.66;96809.91;5137331;27;20047;-62
2023/10/13 02:38:32;;;;;;;22.27;5.25;;;;;;;6.87;79.60;96809.81;5137319;27;20126;-62
2023/10/13 02:41:05;;;;;;;6.22;3.85;;;;;;;6.87;79.94;96808.09;5137288;27;20039;-61
2023/10/13 02:43:35;;;;;;;6.43;3.90;;;;;;;6.91;80.64;96801.06;5137176;27;20039;-62
2023/10/13 02:46:01;;;;;;;4.50;3.25;;;;;;;6.89;79.97;96798.50;5137083;27;20051;-62
2023/10/13 02:48:39;;;;;;;7.55;3.70;;;;;;;6.90;79.86;96799.34;5137037;27;20070;-62
2023/10/13 02:51:15;;;;;;;9.02;3.65;;;;;;;6.80;80.77;96799.53;5137014;27;20051;-63
2023/10/13 02:53:46;;;;;;;3.58;3.28;;;;;;;6.78;81.35;96798.72;5136957;27;20051;-62
2023/10/13 02:56:13;;;;;;;4.85;3.60;;;;;;;6.78;81.01;96795.25;5136069;27;20046;-62
2023/10/13 02:58:45;;;;;;;6.95;3.72;;;;;;;6.75;81.25;96805.69;5136953;27;20403;-62
2023/10/13 03:01:17;;;;;;;8.57;3.80;;;;;;;6.77;81.19;96799.56;5136861;27;20051;-63
2023/10/13 03:03:49;;;;;;;6.70;3.80;;;;;;;6.74;81.01;96802.22;5136841;27;20043;-62
2023/10/13 03:06:18;;;;;;;7.45;4.68;;;;;;;6.80;80.95;96796.91;5136667;27;20043;-62
2023/10/13 03:08:44;;;;;;;7.50;3.60;;;;;;;6.83;81.01;96806.41;5136701;27;20043;-63
2023/10/13 03:11:13;;;;;;;6.40;3.53;;;;;;;6.81;81.47;96803.81;5136613;27;20442;-62
2023/10/13 03:13:44;;;;;;;4.90;3.55;;;;;;;6.81;81.81;96798.63;5136636;27;20500;-62
2023/10/13 03:16:16;;;;;;;4.70;3.80;;;;;;;6.79;81.57;96791.75;5136611;27;20120;-63
2023/10/13 03:18:53;;;;;;;8.15;3.30;;;;;;;6.79;82.13;96797.81;5136536;27;20054;-62
2023/10/13 03:21:29;;;;;;;6.13;3.42;;;;;;;6.76;82.14;96800.47;5136482;27;20067;-62
2023/10/13 03:24:05;;;;;;;7.20;3.88;;;;;;;6.76;82.10;96799.59;5136377;27;20419;-62
2023/10/13 03:26:36;;;;;;;4.38;3.40;;;;;;;6.76;81.82;96795.28;5136118;27;20389;-61
2023/10/13 03:29:08;;;;;;;4.57;3.15;;;;;;;6.69;82.23;96791.06;5136300;27;20123;-62
2023/10/13 03:31:39;;;;;;;4.60;3.45;;;;;;;6.77;82.19;96793.53;5136227;27;20047;-61
2023/10/13 03:34:11;;;;;;;6.38;3.75;;;;;;;6.77;82.30;96790.94;5136136;27;20051;-63
2023/10/13 03:36:57;;;;;;;5.10;3.38;;;;;;;6.77;82.75;96785.75;5136282;27;20054;-63
2023/10/13 03:39:31;;;;;;;4.50;3.35;;;;;;;6.78;82.99;96783.13;5136046;27;20047;-63
2023/10/13 03:41:59;;;;;;;4.32;3.70;;;;;;;6.81;83.09;96782.19;5136097;27;20051;-63
2023/10/13 03:44:30;;;;;;;7.10;3.58;;;;;;;6.79;83.43;96777.00;5136058;27;20047;-63
2023/10/13 03:47:08;;;;;;;6.05;4.00;;;;;;;6.76;83.52;96781.41;5136216;27;20047;-63
2023/10/13 03:49:37;;;;;;;5.85;3.60;;;;;;;6.80;82.84;96778.72;5135881;27;20047;-63
2023/10/13 03:52:05;;;;;;;5.03;3.70;;;;;;;6.83;82.86;96789.06;5135772;27;20049;-62
2023/10/13 03:54:34;;;;;;;6.55;3.65;;;;;;;6.79;82.65;96784.81;5135907;27;20066;-62
2023/10/13 03:57:11;;;;;;;4.43;3.72;;;;;;;6.81;82.70;96784.78;5135704;27;20503;-61
2023/10/13 03:59:46;;;;;;;4.28;3.53;;;;;;;6.83;82.38;96793.41;5135700;27;20043;-62
2023/10/13 04:02:17;;;;;;;6.63;3.72;;;;;;;6.83;83.20;96788.19;5135684;27;20054;-63
2023/10/13 04:04:49;;;;;;;9.50;3.53;;;;;;;6.90;84.04;96788.94;5135848;27;20047;-62
2023/10/13 04:15:41;;;;;;;10.55;4.30;;;;;;;7.08;84.38;96791.19;5135554;27;20053;-62
2023/10/13 04:18:30;;;;;;;8.98;4.15;;;;;;;7.06;84.04;96795.56;5135352;27;20107;-62
2023/10/13 04:21:08;;;;;;;6.75;4.25;;;;;;;7.09;83.83;96797.25;5135349;27;20127;-61
2023/10/13 04:24:08;;;;;;;8.88;4.32;;;;;;;7.09;84.45;96799.84;5135538;27;20050;-62
2023/10/13 04:26:21;;;;;;;6.43;4.38;;;;;;;7.17;84.29;96800.53;5135115;27;20046;-62
2023/10/13 04:28:56;;;;;;;13.38;4.85;;;;;;;7.16;83.90;96809.25;5134825;27;20047;-62
2023/10/13 04:34:17;;;;;;;6.65;4.20;;;;;;;7.16;83.38;96796.22;5134973;27;20057;-62
2023/10/13 04:36:46;;;;;;;6.07;4.20;;;;;;;7.18;84.08;96806.59;5135019;27;20131;-62
2023/10/13 04:39:29;;;;;;;10.60;4.43;;;;;;;7.17;83.67;96807.50;5134784;27;20484;-62
2023/10/13 04:41:57;;;;;;;9.93;5.47;;;;;;;7.20;84.59;96810.06;5134997;27;20047;-62
2023/10/13 04:47:21;;;;;;;5.55;4.10;;;;;;;7.29;84.10;96807.25;5135108;27;20050;-62
2023/10/13 04:49:51;;;;;;;6.88;4.00;;;;;;;7.26;83.47;96812.53;5134759;27;20078;-62
2023/10/13 04:52:38;;;;;;;10.35;4.50;;;;;;;7.35;83.68;96806.28;5134867;27;20047;-62
2023/10/13 04:58:14;;;;;;;11.25;4.40;;;;;;;7.51;83.34;96813.75;5097501;27;20043;-62
2023/10/13 05:01:16;;;;;;;7.85;4.70;;;;;;;7.59;82.80;96814.47;5134455;27;20057;-63
2023/10/13 05:04:21;;;;;;;6.45;4.10;;;;;;;7.65;82.32;96814.28;5134394;27;20504;-62
2023/10/13 05:46:02;;;;;;;3.17;2.17;;;;;;;21.50;40.55;96866.72;5134045;28;20062;-63
2023/10/13 05:48:41;;;;;;;6.63;2.55;;;;;;;22.27;38.55;96865.16;5133874;27;20051;-63
2023/10/13 06:30:05;;;;;;;4.32;2.90;;;;;;;30.68;25.98;96899.69;5133710;27;20560;-62
2023/10/13 06:32:33;;;;;;;11.60;3.17;;;;;;;31.10;25.53;96898.44;5137105;27;20479;-62
2023/10/13 06:35:05;;;;;;;10.73;3.03;;;;;;;31.60;24.88;96895.31;5137395;27;20047;-63
2023/10/13 06:37:32;;;;;;;7.70;2.70;;;;;;;31.87;24.10;96900.25;5137309;27;20046;-63
2023/10/13 06:40:06;;;;;;;5.10;2.70;;;;;;;32.11;23.84;96901.88;5137598;27;20517;-63
2023/10/13 06:42:37;;;;;;;8.60;3.15;;;;;;;32.37;22.97;96905.13;5137274;27;20451;-63
2023/10/13 06:45:08;;;;;;;8.50;2.42;;;;;;;32.57;21.79;96894.59;5137160;27;20158;-62
2023/10/13 06:47:39;;;;;;;8.07;2.88;;;;;;;32.58;21.78;96896.25;5137128;27;20047;-63
2023/10/13 06:50:15;;;;;;;9.07;2.72;;;;;;;32.96;21.93;96888.94;5137060;27;20051;-63
2023/10/13 06:52:42;;;;;;;7.28;2.72;;;;;;;33.44;21.40;96891.06;5137189;27;20495;-63
2023/10/13 06:55:11;;;;;;;4.00;2.35;;;;;;;33.93;20.63;96896.63;5136962;27;20079;-63
2023/10/13 06:57:42;;;;;;;4.90;2.63;;;;;;;34.21;20.76;96898.47;5137001;27;20043;-63
2023/10/13 07:00:19;;;;;;;8.65;2.97;;;;;;;34.49;20.59;96902.97;5137019;27;20102;-63
2023/10/13 07:02:47;;;;;;;4.72;2.80;;;;;;;34.51;20.27;96898.19;5136786;27;20039;-63
2023/10/13 07:05:14;;;;;;;6.30;2.90;;;;;;;34.08;20.41;96892.97;5136769;27;20491;-62
2023/10/13 07:07:43;;;;;;;12.95;8.45;;;;;;;34.26;19.99;96901.44;5136793;27;20077;-63
2023/10/13 07:10:12;;;;;;;3.65;2.50;;;;;;;34.47;19.46;96901.50;5136748;27;20541;-62
2023/10/13 07:12:43;;;;;;;5.80;2.88;;;;;;;34.39;19.22;96907.94;5136687;27;20054;-63
2023/10/13 07:15:19;;;;;;;6.32;3.00;;;;;;;34.28;20.22;96906.66;5136453;27;20051;-63
2023/10/13 07:17:47;;;;;;;6.85;2.83;;;;;;;34.01;20.77;96906.50;5136720;27;20050;-62
2023/10/13 07:20:23;;;;;;;7.88;3.05;;;;;;;33.39;20.52;96894.38;5136523;27;20078;-63
2023/10/13 07:22:57;;;;;;;6.78;2.92;;;;;;;32.97;20.88;96896.03;5136653;27;20142;-64
2023/10/13 07:25:25;;;;;;;7.70;2.40;;;;;;;32.41;21.17;96895.59;5136489;27;20061;-62
2023/10/13 07:27:56;;;;;;;3.03;2.40;;;;;;;31.59;22.60;96892.78;5136243;27;20130;-62
2023/10/13 07:30:26;;;;;;;6.32;2.50;;;;;;;31.32;22.71;96890.47;5136287;27;20039;-63
2023/10/13 07:32:57;;;;;;;8.45;3.08;;;;;;;31.21;23.06;96891.72;5136404;27;20050;-63
2023/10/13 07:35:26;;;;;;;10.00;2.95;;;;;;;31.09;23.38;96894.03;5136176;27;20047;-63
2023/10/13 07:37:54;;;;;;;8.05;3.05;;;;;;;30.99;23.70;96896.13;5136086;27;20412;-62
2023/10/13 07:40:39;;;;;;;8.63;3.30;;;;;;;30.68;23.79;96895.13;5136007;27;20058;-63
2023/10/13 07:43:10;;;;;;;8.57;3.10;;;;;;;30.33;24.92;96902.72;5136084;27;20462;-63
2023/10/13 07:45:38;;;;;;;16.67;3.00;;;;;;;30.00;24.81;96906.34;5136320;27;20047;-62
2023/10/13 07:48:11;;;;;;;6.57;2.75;;;;;;;29.74;25.29;96896.66;5135996;27;20104;-63
2023/10/13 07:50:39;;;;;;;5.15;2.63;;;;;;;29.57;25.71;96894.00;5135944;27;20050;-63
2023/10/13 07:53:18;;;;;;;5.97;2.95;;;;;;;29.35;25.20;96895.50;5135868;27;20139;-62
2023/10/13 07:55:48;;;;;;;8.02;3.20;;;;;;;29.06;26.59;96895.00;5135732;27;20083;-63
2023/10/13 07:58:16;;;;;;;10.52;3.20;;;;;;;29.00;26.79;96895.66;5135732;27;20454;-62
2023/10/13 08:00:54;;;;;;;5.82;3.08;;;;;;;29.01;26.09;96887.41;5135605;27;20050;-61
2023/10/13 08:03:43;;;;;;;9.63;2.40;;;;;;;28.81;26.28;96886.03;5135999;27;20211;-62
2023/10/13 08:06:19;;;;;;;5.55;2.72;;;;;;;28.45;26.44;96882.59;5135654;27;20138;-63
2023/10/13 08:08:49;;;;;;;4.82;2.70;;;;;;;28.41;27.26;96891.97;5135509;27;20047;-63
2023/10/13 08:11:30;;;;;;;12.07;2.58;;;;;;;28.31;27.12;96892.13;5135498;27;20047;-61
2023/10/13 08:14:00;;;;;;;7.18;3.03;;;;;;;28.31;27.28;96885.91;5135270;27;20046;-62
2023/10/13 08:16:45;;;;;;;10.43;2.75;;;;;;;28.37;27.34;96879.88;5135567;27;20130;-62
2023/10/13 08:19:14;;;;;;;6.43;3.00;;;;;;;28.41;26.82;96877.72;5135329;27;20047;-61
2023/10/13 08:21:49;;;;;;;7.83;2.57;;;;;;;28.23;26.84;96882.16;5135443;27;20045;-62
2023/10/13 08:24:16;;;;;;;10.60;3.03;;;;;;;28.20;27.04;96874.41;5135202;27;20499;-62
2023/10/13 08:27:32;;;;;;;5.15;2.42;;;;;;;28.01;27.20;96872.81;5135310;27;20043;-61
2023/10/13 08:30:26;;;;;;;7.68;2.95;;;;;;;27.75;27.95;96866.47;5135013;27;20043;-62
2023/10/13 08:32:54;;;;;;;5.45;3.03;;;;;;;27.79;28.14;96866.16;5135056;27;20043;-64
2023/10/13 08:35:33;;;;;;;;;;;;;;;27.73;27.44;96867.66;5135353;27;20137;-63
2023/10/13 08:38:04;;;;;;;7.65;2.97;;;;;;;27.70;27.70;96874.19;5135212;27;19919;-64
2023/10/13 08:43:17;;;;;;;8.90;3.55;;;;;;;27.57;27.96;96876.41;5134936;27;20404;-62
2023/10/13 08:45:58;;;;;;;8.63;3.17;;;;;;;27.53;28.44;96873.19;5134985;27;20100;-62
2023/10/13 08:48:35;;;;;;;14.02;3.30;;;;;;;27.59;28.28;96877.94;5134726;27;20062;-63
2023/10/13 08:51:12;;;;;;;14.60;3.83;;;;;;;27.49;28.18;96872.69;5134955;27;20051;-62
2023/10/13 08:53:51;;;;;;;8.10;3.13;;;;;;;27.50;28.57;96870.81;5134097;27;20133;-62
2023/10/13 08:56:33;;;;;;;11.65;3.25;;;;;;;27.33;28.99;96870.72;5134523;27;20134;-63
2023/10/13 08:59:05;;;;;;;4.80;2.90;;;;;;;27.33;28.79;96873.38;5134545;27;20047;-63
2023/10/13 09:01:38;;;;;;;9.50;3.30;;;;;;;27.48;28.81;96870.97;5134548;27;20051;-62
2023/10/13 09:04:21;;;;;;;10.15;3.05;;;;;;;27.64;27.98;96864.03;5134826;27;20107;-63
2023/10/13 09:07:07;;;;;;;10.13;3.10;;;;;;;27.58;27.77;96868.22;5134573;27;20377;-61
2023/10/13 09:09:58;;;;;;;8.88;2.97;;;;;;;27.64;27.78;96872.09;5134462;27;20130;-63
2023/10/13 09:12:35;;;;;;;7.90;3.00;;;;;;;27.60;28.34;96881.47;5134390;27;20111;-62
2023/10/13 09:15:05;;;;;;;12.68;3.03;;;;;;;27.60;28.55;96882.31;5134384;27;20134;-62
2023/10/13 09:17:47;;;;;;;10.73;3.20;;;;;;;27.71;27.39;96878.53;5134351;27;20051;-63
2023/10/13 09:20:31;;;;;;;8.25;3.03;;;;;;;27.60;27.69;96876.94;5134451;27;20074;-62
2023/10/13 09:23:08;;;;;;;7.35;3.03;;;;;;;27.67;28.06;96870.97;5134430;27;20081;-64
2023/10/13 09:25:35;;;;;;;11.35;3.35;;;;;;;27.62;27.42;96876.78;5134240;27;20040;-64
2023/10/13 09:28:03;;;;;;;10.45;2.80;;;;;;;27.59;27.76;96869.88;5133887;27;20048;-64
2023/10/13 09:30:31;;;;;;;8.15;2.50;;;;;;;27.66;27.72;96866.59;5134194;27;20070;-64
2023/10/13 09:33:04;;;;;;;9.27;3.20;;;;;;;27.64;27.64;96872.09;5134106;27;20496;-64
2023/10/13 09:35:33;;;;;;;14.25;3.00;;;;;;;27.61;27.96;96865.22;5133987;27;20099;-62
2023/10/13 09:38:02;;;;;;;9.27;2.70;;;;;;;27.58;27.49;96870.91;5134269;27;20431;-64
2023/10/13 09:40:34;;;;;;;6.93;2.78;;;;;;;27.50;28.49;96857.41;5134039;27;20048;-63
2023/10/13 09:43:07;;;;;;;9.70;3.13;;;;;;;27.47;28.51;96865.75;5134071;27;20039;-63
2023/10/13 09:45:36;;;;;;;14.75;2.80;;;;;;;27.37;27.58;96858.69;5134052;28;20043;-63
2023/10/13 09:48:16;;;;;;;5.32;2.58;;;;;;;27.15;28.63;96861.84;5134068;28;20502;-63
2023/10/13 09:50:48;;;;;;;10.25;2.60;;;;;;;27.00;28.44;96862.41;5133969;27;20054;-62
2023/10/13 09:53:18;;;;;;;8.90;2.85;;;;;;;27.08;27.97;96858.94;5133883;27;20051;-63
2023/10/13 09:55:48;;;;;;;7.63;3.28;;;;;;;27.21;28.56;96861.25;5134093;28;20087;-63
2023/10/13 09:58:18;;;;;;;;;;;;;;;27.19;28.40;96853.34;5134342;28;20066;-62
2023/10/13 10:00:49;;;;;;;7.70;3.13;;;;;;;27.16;28.30;96848.28;5133858;27;19927;-62
2023/10/13 10:03:39;;;;;;;5.95;3.13;;;;;;;27.15;28.27;96849.25;5133927;27;20039;-63
2023/10/13 10:06:06;;;;;;;9.20;3.28;;;;;;;27.09;27.79;96845.38;5137249;27;20048;-64
2023/10/13 10:08:35;;;;;;;14.20;3.10;;;;;;;27.17;28.65;96841.06;5137918;27;20043;-63
2023/10/13 10:11:15;;;;;;;14.30;3.03;;;;;;;27.21;28.68;96845.97;5137969;27;20411;-64
2023/10/13 10:13:57;;;;;;;7.75;2.92;;;;;;;27.23;28.49;96840.44;5138052;27;20503;-63
2023/10/13 10:16:36;;;;;;;9.68;3.90;;;;;;;27.20;27.98;96830.84;5137789;27;20062;-63
2023/10/13 10:19:07;;;;;;;7.38;3.00;;;;;;;27.02;28.77;96830.88;5137939;27;20549;-63
2023/10/13 10:21:35;;;;;;;6.63;2.72;;;;;;;27.10;28.37;96824.75;5137612;27;20118;-63
2023/10/13 10:24:13;;;;;;;5.03;2.67;;;;;;;27.19;28.42;96821.13;5137635;27;20047;-62
2023/10/13 10:26:52;;;;;;;7.95;2.53;;;;;;;27.09;28.53;96818.53;5137405;27;20121;-63
2023/10/13 10:29:19;;;;;;;8.23;2.90;;;;;;;27.08;27.29;96816.84;5137474;27;20043;-63
2023/10/13 10:31:47;;;;;;;7.15;3.00;;;;;;;27.16;28.32;96817.91;5137582;27;20061;-62
2023/10/13 10:34:18;;;;;;;13.13;3.13;;;;;;;27.12;28.43;96815.53;5137461;27;20074;-63
2023/10/13 10:36:48;;;;;;;11.55;3.13;;;;;;;27.19;28.59;96820.28;5137242;27;20051;-63
2023/10/13 10:39:17;;;;;;;7.15;2.90;;;;;;;27.21;28.33;96821.78;5137324;27;20049;-63
2023/10/13 10:41:51;;;;;;;17.17;3.45;;;;;;;27.23;28.58;96818.97;5137281;27;20476;-63
2023/10/13 10:44:25;;;;;;;9.32;3.05;;;;;;;27.39;28.25;96812.84;5137174;27;20403;-64
2023/10/13 10:46:57;;;;;;;4.30;2.60;;;;;;;27.46;27.89;96808.53;5137152;27;20043;-63
2023/10/13 10:49:30;;;;;;;6.40;2.20;;;;;;;27.52;27.43;96812.44;5137203;27;20122;-63
2023/10/13 10:52:04;;;;;;;12.10;2.92;;;;;;;27.40;27.81;96811.00;5137403;27;20054;-62
2023/10/13 10:54:32;;;;;;;10.25;2.90;;;;;;;27.19;28.17;96809.53;5136867;27;20054;-63
2023/10/13 10:57:10;;;;;;;14.65;3.13;;;;;;;26.93;28.44;96816.53;5136968;27;20039;-64
2023/10/13 10:59:38;;;;;;;7.65;2.97;;;;;;;26.65;28.78;96805.06;5136932;27;20416;-63
2023/10/13 11:02:07;;;;;;;5.10;3.10;;;;;;;26.70;29.00;96818.88;5136999;27;20047;-63
2023/10/13 11:04:41;;;;;;;8.98;3.08;;;;;;;26.68;28.76;96813.66;5136805;27;20047;-63
2023/10/13 11:07:09;;;;;;;9.00;3.00;;;;;;;26.86;28.10;96808.28;5136751;27;20043;-64
2023/10/13 11:09:45;;;;;;;8.27;3.45;;;;;;;26.92;28.47;96801.44;5136795;27;20062;-63
2023/10/13 11:12:23;;;;;;;5.97;2.83;;;;;;;27.04;28.56;96794.00;5136912;27;20051;-63
2023/10/13 11:15:01;;;;;;;10.38;3.20;;;;;;;27.24;28.02;96786.59;5136589;27;20473;-63
2023/10/13 11:17:39;;;;;;;7.93;3.35;;;;;;;27.41;27.97;96793.88;5136112;27;20480;-63
2023/10/13 11:20:17;;;;;;;12.15;3.20;;;;;;;27.49;27.89;96786.75;5136705;27;20039;-63
2023/10/13 11:22:48;;;;;;;10.35;2.83;;;;;;;27.68;27.99;96790.22;5136516;27;20133;-63
2023/10/13 11:25:30;;;;;;;4.85;3.13;;;;;;;27.83;27.65;96792.28;5136491;27;20450;-63
2023/10/13 11:27:59;;;;;;;5.80;2.92;;;;;;;27.78;27.00;96790.06;5136312;27;20082;-63
2023/10/13 11:30:33;;;;;;;12.05;3.45;;;;;;;27.53;27.35;96783.72;5136415;27;20050;-63
2023/10/13 11:33:06;;;;;;;7.57;3.03;;;;;;;27.43;27.93;96786.53;5136282;27;20092;-62
2023/10/13 11:35:56;;;;;;;12.90;3.17;;;;;;;27.41;27.59;96780.47;5136452;27;20051;-63
2023/10/13 11:38:28;;;;;;;11.70;2.85;;;;;;;27.22;27.75;96791.28;5136483;27;20119;-64
2023/10/13 11:41:11;;;;;;;9.00;3.30;;;;;;;27.10;28.49;96784.50;5136443;27;20126;-62
2023/10/13 11:43:52;;;;;;;10.68;3.20;;;;;;;26.94;28.13;96785.19;5136245;27;20126;-63
2023/10/13 11:46:55;;;;;;;5.45;3.50;;;;;;;26.91;28.50;96788.19;5135972;27;20099;-63
2023/10/13 11:49:17;;;;;;;7.82;3.38;;;;;;;26.80;28.49;96790.13;5136156;27;20062;-62
2023/10/13 11:51:47;;;;;;;11.30;3.47;;;;;;;26.74;28.61;96785.38;5136021;27;20504;-63
2023/10/13 11:54:15;;;;;;;10.80;3.20;;;;;;;26.74;28.47;96785.38;5135916;27;20086;-64
2023/10/13 11:56:42;;;;;;;7.38;3.45;;;;;;;26.69;29.08;96783.13;5135747;27;20457;-63
2023/10/13 11:59:16;;;;;;;9.77;3.30;;;;;;;26.58;28.85;96780.72;5135842;27;20054;-62
2023/10/13 12:04:41;;;;;;;15.43;3.70;;;;;;;26.50;29.13;96784.16;5135836;27;20058;-62
2023/10/13 12:07:17;;;;;;;8.88;3.03;;;;;;;26.36;30.13;96780.16;5135535;27;20130;-63
2023/10/13 12:10:03;;;;;;;10.73;3.58;;;;;;;26.20;29.10;96786.16;5135486;27;20096;-63
2023/10/13 12:12:33;;;;;;;11.27;3.25;;;;;;;25.72;29.79;96792.50;5135577;27;20051;-64
2023/10/13 12:15:09;;;;;;;9.20;3.40;;;;;;;25.46;29.93;96782.41;5135328;27;20047;-63
2023/10/13 12:17:39;;;;;;;14.27;3.67;;;;;;;25.24;30.45;96788.97;5135499;27;20402;-62
2023/10/13 12:20:10;;;;;;;10.25;3.55;;;;;;;25.25;30.58;96793.31;5135592;27;20047;-63
2023/10/13 12:22:39;;;;;;;7.75;3.60;;;;;;;25.44;30.51;96787.09;5135457;27;20133;-62
2023/10/13 12:25:18;;;;;;;9.30;3.47;;;;;;;25.69;30.48;96787.44;5135362;27;20054;-62
2023/10/13 12:27:48;;;;;;;9.02;3.30;;;;;;;26.00;30.07;96778.25;5134605;27;20129;-63
2023/10/13 12:30:22;;;;;;;8.23;3.60;;;;;;;26.05;29.09;96785.84;5134958;27;20046;-62
2023/10/13 12:32:58;;;;;;;6.85;3.28;;;;;;;26.18;28.98;96789.00;5135082;27;20043;-63
2023/10/13 12:35:30;;;;;;;13.25;3.55;;;;;;;26.27;29.67;96778.38;5135091;27;20082;-63
2023/10/13 12:38:05;;;;;;;8.48;3.40;;;;;;;26.39;29.12;96781.72;5134974;27;20053;-63
2023/10/13 12:49:03;;;;;;;7.45;2.97;;;;;;;26.44;29.41;96793.66;5134988;27;20065;-63
2023/10/13 12:51:50;;;;;;;11.23;2.95;;;;;;;26.45;29.08;96789.13;5134745;27;20054;-63
2023/10/13 12:54:23;;;;;;;11.35;3.10;;;;;;;26.58;29.26;96789.56;5134854;27;20476;-64
2023/10/13 12:56:56;;;;;;;11.30;3.25;;;;;;;26.65;29.03;96792.50;5134554;27;20480;-63
2023/10/13 12:59:26;;;;;;;9.07;3.13;;;;;;;26.81;28.96;96782.88;5134892;27;20138;-62
2023/10/13 13:01:54;;;;;;;13.25;3.17;;;;;;;26.88;28.63;96781.28;5134983;27;20112;-62
2023/10/13 13:04:21;;;;;;;6.03;2.92;;;;;;;26.79;28.25;96783.03;5134637;27;20047;-62
2023/10/13 13:06:49;;;;;;;14.00;2.90;;;;;;;26.60;28.64;96776.00;5134436;27;20088;-63
2023/10/13 13:09:25;;;;;;;8.10;2.63;;;;;;;26.57;28.82;96774.50;5134404;27;20496;-61
2023/10/13 13:11:57;;;;;;;5.95;3.55;;;;;;;26.46;29.20;96780.09;5134457;27;20429;-62
2023/10/13 13:14:28;;;;;;;15.13;3.20;;;;;;;26.34;29.67;96772.25;5134401;27;20419;-63
2023/10/13 13:17:01;;;;;;;8.93;3.25;;;;;;;26.19;29.14;96776.44;5134219;27;20086;-63
2023/10/13 13:19:28;;;;;;;17.25;3.97;;;;;;;26.01;29.25;96779.09;5134340;27;20050;-63
2023/10/13 13:21:55;;;;;;;11.95;3.88;;;;;;;25.78;30.00;96780.34;5134354;27;20484;-63
2023/10/13 13:24:23;;;;;;;13.50;3.67;;;;;;;25.69;29.97;96779.41;5134295;27;20074;-63
2023/10/13 13:26:54;;;;;;;14.73;3.78;;;;;;;25.63;30.18;96781.81;5134007;27;20058;-62
2023/10/13 13:29:25;;;;;;;12.93;4.30;;;;;;;25.67;29.77;96785.91;5134201;27;20137;-63
2023/10/13 13:31:52;;;;;;;6.25;3.30;;;;;;;25.71;30.01;96785.44;5134279;27;20122;-62
2023/10/13 13:34:21;;;;;;;24.60;4.00;;;;;;;25.66;29.55;96793.09;5134129;27;20087;-62
2023/10/13 13:36:52;;;;;;;16.63;4.70;;;;;;;25.53;29.58;96790.72;5134093;28;20051;-63
2023/10/13 13:39:28;;;;;;;14.27;3.88;;;;;;;25.44;29.83;96778.22;5133717;27;20094;-62
2023/10/13 13:41:56;;;;;;;12.60;3.97;;;;;;;25.31;30.18;96776.69;5134006;28;20476;-62
2023/10/13 13:44:35;;;;;;;9.82;4.07;;;;;;;25.21;30.31;96773.22;5134354;27;20045;-62
2023/10/13 13:47:05;;;;;;;12.63;4.70;;;;;;;25.15;30.35;96771.97;5134022;27;20050;-62
2023/10/13 13:49:39;;;;;;;15.68;4.45;;;;;;;25.15;30.83;96774.63;5134108;27;20126;-62
2023/10/13 13:52:07;;;;;;;11.20;4.13;;;;;;;25.17;30.77;96775.34;5133922;27;20126;-63
2023/10/13 13:54:34;;;;;;;20.85;3.78;;;;;;;25.16;30.58;96779.00;5133971;27;20051;-62